createdAt,value
2018-12-06T00:52:48.229Z,18.53
2018-12-06T00:57:49.851Z,20.00
2018-12-06T01:00:19.493Z,17.17
2018-12-06T01:05:17.460Z,19.43
2018-12-06T01:08:51.974Z,17.83
2018-12-06T01:11:20.224Z,17.33
2018-12-06T01:13:51.694Z,17.07
2018-12-06T01:16:22.641Z,16.03
2018-12-06T01:18:50.391Z,18.17
2018-12-06T01:21:21.800Z,16.40
2018-12-06T01:23:55.875Z,15.97
2018-12-06T01:26:27.062Z,16.57
2018-12-06T01:28:57.927Z,15.10
2018-12-06T01:31:29.848Z,14.80
2018-12-06T01:34:01.363Z,16.70
2018-12-06T01:36:37.894Z,14.40
2018-12-06T01:42:09.328Z,14.73
2018-12-06T01:44:47.798Z,14.90
2018-12-06T01:47:21.536Z,14.27
2018-12-06T01:49:55.267Z,14.93
2018-12-06T01:52:28.790Z,13.90
2018-12-06T01:54:57.083Z,14.60
2018-12-06T02:00:24.125Z,15.27
2018-12-06T02:02:52.363Z,13.40
2018-12-06T02:08:19.252Z,13.43
2018-12-06T02:10:47.705Z,12.67
2018-12-06T02:13:33.313Z,15.63
2018-12-06T02:16:01.060Z,13.60
2018-12-06T02:18:32.553Z,14.90
2018-12-06T02:21:03.875Z,14.37
2018-12-06T02:23:31.760Z,12.90
2018-12-06T02:25:59.672Z,13.27
2018-12-06T02:28:27.633Z,13.83
2018-12-06T02:31:02.956Z,13.47
2018-12-06T02:33:36.949Z,14.43
2018-12-06T02:36:10.765Z,14.43
2018-12-06T02:38:38.667Z,13.80
2018-12-06T02:41:06.668Z,15.00
2018-12-06T02:43:34.473Z,14.40
2018-12-06T02:46:02.234Z,13.40
2018-12-06T02:48:35.814Z,15.00
2018-12-06T02:51:06.922Z,14.37
2018-12-06T02:53:36.647Z,14.50
2018-12-06T02:56:10.589Z,15.23
2018-12-06T02:58:38.297Z,16.10
2018-12-06T03:01:06.285Z,13.83
2018-12-06T03:03:34.863Z,13.07
2018-12-06T03:06:03.517Z,15.03
2018-12-06T03:08:31.800Z,13.90
2018-12-06T03:11:02.795Z,14.43
2018-12-06T03:13:40.087Z,14.53
2018-12-06T03:16:08.143Z,13.67
2018-12-06T03:18:35.946Z,12.57
2018-12-06T03:21:03.806Z,14.00
2018-12-06T03:23:31.457Z,14.60
2018-12-06T03:26:00.252Z,14.80
2018-12-06T03:28:27.996Z,13.57
2018-12-06T03:30:55.639Z,14.60
2018-12-06T03:33:23.306Z,14.83
2018-12-06T03:35:51.027Z,17.43
2018-12-06T03:38:18.641Z,14.03
2018-12-06T03:40:46.330Z,14.57
2018-12-06T03:43:14.293Z,13.47
2018-12-06T03:45:42.055Z,13.40
2018-12-06T03:48:09.776Z,13.70
2018-12-06T03:50:48.317Z,15.27
2018-12-06T03:53:16.051Z,13.77
2018-12-06T03:55:43.848Z,12.67
2018-12-06T03:58:11.664Z,15.40
2018-12-06T04:00:39.459Z,13.23
2018-12-06T04:03:07.167Z,13.90
2018-12-06T04:05:35.155Z,13.13
2018-12-06T04:08:02.862Z,14.43
2018-12-06T04:10:30.669Z,14.23
2018-12-06T04:12:58.458Z,14.27
2018-12-06T04:18:11.859Z,14.73
2018-12-06T04:20:39.520Z,16.33
2018-12-06T04:23:07.088Z,14.50
2018-12-06T04:25:34.705Z,14.80
2018-12-06T04:28:02.293Z,14.47
2018-12-06T04:30:29.915Z,14.40
2018-12-06T04:32:57.631Z,14.50
2018-12-06T04:35:25.288Z,14.07
2018-12-06T04:37:52.863Z,15.20
2018-12-06T04:40:20.464Z,15.77
2018-12-06T04:42:48.035Z,15.30
2018-12-06T04:45:15.642Z,15.33
2018-12-06T04:47:43.460Z,15.87
2018-12-06T04:50:11.077Z,16.27
2018-12-06T04:52:44.451Z,16.20
2018-12-06T04:55:12.267Z,16.17
2018-12-06T04:57:39.943Z,17.30
2018-12-06T05:00:07.892Z,17.17
2018-12-06T05:02:35.554Z,17.67
2018-12-06T05:05:03.852Z,14.80
2018-12-06T05:07:31.570Z,14.80
2018-12-06T05:09:59.323Z,15.13
2018-12-06T05:12:26.982Z,15.47
2018-12-06T05:14:54.667Z,15.10
2018-12-06T05:17:22.269Z,16.43
2018-12-06T05:19:51.601Z,17.00
2018-12-06T05:22:19.459Z,15.70
2018-12-06T05:24:47.170Z,16.20
2018-12-06T05:27:14.821Z,15.40
2018-12-06T05:29:42.544Z,14.93
2018-12-06T05:32:10.667Z,15.90
2018-12-06T05:34:41.773Z,13.40
2018-12-06T05:37:09.660Z,14.70
2018-12-06T05:39:37.605Z,14.50
2018-12-06T05:42:05.582Z,15.90
2018-12-06T05:44:33.362Z,15.10
2018-12-06T05:47:01.191Z,15.00
2018-12-06T05:49:30.206Z,14.70
2018-12-06T05:51:58.358Z,16.10
2018-12-06T05:54:26.172Z,15.90
2018-12-06T05:56:53.819Z,15.13
2018-12-06T05:59:21.595Z,14.70
2018-12-06T06:01:49.260Z,15.83
2018-12-06T06:04:20.643Z,18.40
2018-12-06T06:06:48.244Z,16.23
2018-12-06T06:09:15.852Z,14.53
2018-12-06T06:11:43.484Z,17.27
2018-12-06T06:14:11.126Z,15.60
2018-12-06T06:16:38.787Z,15.47
2018-12-06T06:19:06.483Z,15.40
2018-12-06T06:21:34.079Z,14.60
2018-12-06T06:24:01.653Z,14.70
2018-12-06T06:26:29.262Z,16.63
2018-12-06T06:28:56.841Z,16.77
2018-12-06T06:31:24.454Z,18.20
2018-12-06T06:33:52.111Z,16.40
2018-12-06T06:36:19.845Z,15.90
2018-12-06T06:38:47.439Z,14.57
2018-12-06T06:41:15.180Z,15.20
2018-12-06T06:43:42.769Z,15.17
2018-12-06T06:46:14.183Z,14.10
2018-12-06T06:48:41.836Z,14.03
2018-12-06T06:51:09.475Z,15.47
2018-12-06T06:53:40.599Z,15.53
2018-12-06T06:56:08.275Z,17.40
2018-12-06T06:58:35.875Z,15.83
2018-12-06T07:01:03.501Z,16.03
2018-12-06T07:03:31.097Z,14.33
2018-12-06T07:05:58.756Z,13.40
2018-12-06T07:08:26.815Z,15.00
2018-12-06T07:10:54.452Z,14.03
2018-12-06T07:13:25.320Z,13.47
2018-12-06T07:15:56.005Z,15.80
2018-12-06T07:18:23.673Z,13.73
2018-12-06T07:20:51.334Z,16.07
2018-12-06T07:23:26.061Z,14.03
2018-12-06T07:25:53.913Z,15.03
2018-12-06T07:28:27.634Z,16.30
2018-12-06T07:31:02.727Z,16.03
2018-12-06T07:33:36.312Z,14.77
2018-12-06T07:36:07.811Z,17.27
2018-12-06T07:38:35.527Z,16.10
2018-12-06T07:41:11.091Z,14.47
2018-12-06T07:43:38.807Z,14.97
2018-12-06T07:46:12.761Z,14.73
2018-12-06T07:48:46.515Z,16.00
2018-12-06T07:51:17.360Z,14.67
2018-12-06T07:53:56.821Z,15.13
2018-12-06T07:56:34.616Z,15.60
2018-12-06T07:59:09.702Z,15.00
2018-12-06T08:01:43.657Z,14.37
2018-12-06T08:04:11.351Z,15.40
2018-12-06T08:06:39.018Z,15.27
2018-12-06T08:09:08.497Z,15.90
2018-12-06T08:11:36.228Z,15.93
2018-12-06T08:14:03.955Z,15.57
2018-12-06T08:16:31.764Z,14.87
2018-12-06T08:18:59.447Z,14.87
2018-12-06T08:21:27.308Z,15.80
2018-12-06T08:23:55.010Z,16.10
2018-12-06T08:26:22.686Z,15.90
2018-12-06T08:28:50.449Z,16.57
2018-12-06T08:31:18.123Z,16.20
2018-12-06T08:33:45.727Z,16.47
2018-12-06T08:36:13.415Z,16.37
2018-12-06T08:38:41.031Z,16.27
2018-12-06T08:41:08.695Z,16.60
2018-12-06T08:43:36.716Z,18.37
2018-12-06T08:46:04.469Z,16.80
2018-12-06T08:48:32.078Z,16.67
2018-12-06T08:50:59.823Z,18.10
2018-12-06T08:53:27.547Z,18.40
2018-12-06T08:55:55.158Z,15.93
2018-12-06T08:58:22.966Z,15.47
2018-12-06T09:00:50.697Z,14.53
2018-12-06T09:03:18.680Z,15.33
2018-12-06T09:05:46.517Z,14.90
2018-12-06T09:08:14.400Z,15.30
2018-12-06T09:10:42.271Z,16.80
2018-12-06T09:13:10.020Z,17.03
2018-12-06T09:15:37.762Z,16.07
2018-12-06T09:18:05.552Z,15.00
2018-12-06T09:20:33.315Z,16.43
2018-12-06T09:23:01.052Z,18.03
2018-12-06T09:25:28.877Z,17.87
2018-12-06T09:27:56.495Z,17.07
2018-12-06T09:30:24.087Z,19.00
2018-12-06T09:32:51.774Z,16.90
2018-12-06T09:35:19.404Z,19.20
2018-12-06T09:37:47.128Z,17.47
2018-12-06T09:40:14.904Z,18.77
2018-12-06T09:42:42.546Z,17.07
2018-12-06T09:45:10.195Z,17.53
2018-12-06T09:47:38.007Z,19.70
2018-12-06T09:50:05.967Z,18.20
2018-12-06T09:52:33.700Z,19.27
2018-12-06T09:55:01.522Z,17.70
2018-12-06T09:57:29.155Z,19.10
2018-12-06T09:59:56.998Z,16.97
2018-12-06T10:02:24.675Z,18.27
2018-12-06T10:04:52.374Z,18.60
2018-12-06T10:07:20.106Z,16.63
2018-12-06T10:09:47.844Z,17.13
2018-12-06T10:12:15.530Z,14.97
2018-12-06T10:14:43.248Z,14.80
2018-12-06T10:17:11.028Z,13.30
2018-12-06T10:19:38.744Z,14.03
2018-12-06T10:22:06.371Z,15.67
2018-12-06T10:24:34.187Z,13.60
2018-12-06T10:27:01.898Z,13.60
2018-12-06T10:29:29.627Z,14.67
2018-12-06T10:31:57.379Z,12.87
2018-12-06T10:34:25.163Z,12.30
2018-12-06T10:36:52.816Z,13.67
2018-12-06T10:39:20.587Z,13.27
2018-12-06T10:41:48.259Z,12.20
2018-12-06T10:44:26.382Z,11.83
2018-12-06T10:46:54.207Z,13.83
2018-12-06T10:49:21.948Z,12.77
2018-12-06T10:51:49.755Z,12.50
2018-12-06T10:54:17.464Z,12.87
2018-12-06T10:56:45.160Z,12.50
2018-12-06T10:59:12.896Z,11.30
2018-12-06T11:01:46.284Z,9.30
2018-12-06T11:04:13.988Z,8.47
2018-12-06T11:06:41.647Z,7.90
2018-12-06T11:09:09.355Z,9.03
2018-12-06T11:11:36.983Z,7.30
2018-12-06T11:14:04.744Z,7.73
2018-12-06T11:16:32.464Z,7.70
2018-12-06T11:19:00.220Z,13.00
2018-12-06T11:21:27.885Z,7.83
2018-12-06T11:23:56.883Z,7.63
2018-12-06T11:26:24.744Z,8.23
2018-12-06T11:28:52.435Z,7.33
2018-12-06T11:31:20.305Z,6.90
2018-12-06T11:33:48.353Z,7.00
2018-12-06T11:36:16.044Z,7.37
2018-12-06T11:38:43.700Z,6.63
2018-12-06T11:41:11.371Z,6.70
2018-12-06T11:43:39.175Z,6.37
2018-12-06T11:46:06.957Z,6.43
2018-12-06T11:48:34.691Z,6.53
2018-12-06T11:51:02.462Z,6.10
2018-12-06T11:53:30.526Z,5.40
2018-12-06T11:55:58.303Z,5.10
2018-12-06T11:58:26.049Z,6.67
2018-12-06T12:00:53.831Z,5.17
2018-12-06T12:03:21.504Z,6.30
2018-12-06T12:05:49.205Z,5.50
2018-12-06T12:08:16.907Z,5.20
2018-12-06T12:10:44.662Z,6.37
2018-12-06T12:13:12.659Z,5.70
2018-12-06T12:15:40.466Z,5.60
2018-12-06T12:18:10.278Z,5.03
2018-12-06T12:20:38.025Z,4.80
2018-12-06T12:23:05.825Z,5.33
2018-12-06T12:25:33.857Z,4.37
2018-12-06T12:28:01.708Z,4.87
2018-12-06T12:30:29.624Z,4.80
2018-12-06T12:32:57.331Z,4.70
2018-12-06T12:35:25.008Z,3.67
2018-12-06T12:37:52.689Z,4.17
2018-12-06T12:40:20.281Z,3.57
2018-12-06T12:42:50.430Z,3.70
2018-12-06T12:45:18.167Z,3.27
2018-12-06T12:47:46.030Z,3.30
2018-12-06T12:50:13.835Z,4.00
2018-12-06T12:52:41.499Z,2.50
2018-12-06T12:55:09.407Z,2.97
2018-12-06T12:57:37.131Z,3.43
2018-12-06T13:00:05.790Z,3.40
2018-12-06T13:02:33.457Z,2.57
2018-12-06T13:05:01.223Z,3.20
2018-12-06T13:07:28.887Z,4.47
2018-12-06T13:09:56.507Z,2.60
2018-12-06T13:12:24.236Z,2.83
2018-12-06T13:14:52.049Z,3.23
2018-12-06T13:17:19.868Z,4.67
2018-12-06T13:19:47.827Z,3.47
2018-12-06T13:22:17.052Z,3.93
2018-12-06T13:24:45.028Z,3.70
2018-12-06T13:27:13.247Z,7.43
2018-12-06T13:29:41.204Z,10.40
2018-12-06T13:32:14.067Z,6.13
2018-12-06T13:34:42.276Z,3.00
2018-12-06T13:37:10.473Z,2.10
2018-12-06T13:39:38.482Z,2.00
2018-12-06T13:42:06.971Z,2.23
2018-12-06T13:44:35.344Z,2.50
2018-12-06T13:47:03.763Z,1.90
2018-12-06T13:49:35.878Z,3.50
2018-12-06T13:52:06.958Z,2.37
2018-12-06T13:54:37.844Z,2.27
2018-12-06T13:57:05.862Z,2.53
2018-12-06T13:59:33.867Z,3.00
2018-12-06T14:02:01.857Z,1.90
2018-12-06T14:04:29.888Z,1.60
2018-12-06T14:06:58.084Z,1.40
2018-12-06T14:09:26.306Z,2.07
2018-12-06T14:11:54.393Z,1.80
2018-12-06T14:14:22.124Z,2.20
2018-12-06T14:16:50.420Z,1.83
2018-12-06T14:19:18.487Z,1.60
2018-12-06T14:21:46.661Z,2.27
2018-12-06T14:24:16.931Z,2.43
2018-12-06T14:26:44.833Z,2.97
2018-12-06T14:29:12.920Z,2.50
2018-12-06T14:31:41.209Z,2.43
2018-12-06T14:34:08.862Z,2.77
2018-12-06T14:36:37.789Z,2.50
2018-12-06T14:39:08.107Z,2.30
2018-12-06T14:41:35.872Z,3.30
2018-12-06T14:44:03.716Z,3.27
2018-12-06T14:46:31.460Z,2.60
2018-12-06T14:48:59.223Z,2.53
2018-12-06T14:51:26.935Z,2.60
2018-12-06T14:53:54.713Z,2.33
2018-12-06T14:56:22.536Z,2.60
2018-12-06T14:58:50.513Z,3.47
2018-12-06T15:01:18.389Z,2.50
2018-12-06T15:03:46.345Z,3.20
2018-12-06T15:06:20.632Z,3.53
2018-12-06T15:09:05.861Z,5.30
2018-12-06T15:11:46.641Z,3.03
2018-12-06T15:14:25.865Z,3.30
2018-12-06T15:16:59.415Z,2.30
2018-12-06T15:19:27.714Z,5.13
2018-12-06T15:21:55.945Z,5.07
2018-12-06T15:24:23.863Z,4.13
2018-12-06T15:26:51.724Z,7.77
2018-12-06T15:29:20.010Z,4.10
2018-12-06T15:34:52.903Z,4.20
2018-12-06T15:37:21.109Z,3.40
2018-12-06T15:39:56.103Z,2.80
2018-12-06T15:42:24.263Z,1.87
2018-12-06T15:44:52.296Z,2.20
2018-12-06T15:47:20.203Z,2.30
2018-12-06T15:49:48.077Z,1.90
2018-12-06T15:52:15.849Z,2.07
2018-12-06T15:54:43.582Z,2.10
2018-12-06T15:57:13.300Z,2.57
2018-12-06T16:00:01.045Z,2.27
2018-12-06T16:08:47.494Z,2.90
2018-12-06T16:17:26.069Z,1.50
2018-12-06T16:23:03.790Z,1.97
2018-12-06T16:25:45.663Z,1.87
2018-12-06T16:28:26.992Z,1.80
2018-12-06T16:31:05.169Z,1.57
2018-12-06T16:36:35.802Z,1.90
2018-12-06T16:39:16.461Z,2.73
2018-12-06T16:41:50.957Z,2.83
2018-12-06T16:47:35.520Z,2.70
2018-12-06T16:50:24.517Z,3.00
2018-12-06T16:53:01.757Z,2.50
2018-12-06T16:55:35.484Z,2.33
2018-12-06T16:58:15.569Z,2.50
2018-12-06T17:00:51.401Z,2.83
2018-12-06T17:03:35.244Z,3.53
2018-12-06T17:06:15.431Z,3.10
2018-12-06T17:08:59.344Z,3.00
2018-12-06T17:14:36.764Z,4.20
2018-12-06T17:30:08.387Z,2.90
2018-12-06T17:32:41.584Z,3.90
2018-12-06T17:35:23.490Z,4.77
2018-12-06T17:38:03.175Z,4.53
2018-12-06T17:40:39.878Z,4.47
2018-12-06T17:45:54.607Z,4.97
2018-12-06T17:48:28.020Z,3.77
2018-12-06T17:51:03.067Z,4.03
2018-12-06T17:56:22.113Z,4.60
2018-12-06T18:04:19.954Z,5.27
2018-12-06T18:07:00.232Z,5.37
2018-12-06T18:09:35.237Z,4.57
2018-12-06T18:15:07.731Z,4.40
2018-12-06T18:17:42.469Z,5.13
2018-12-06T18:20:16.692Z,5.60
2018-12-06T18:22:50.472Z,4.77
2018-12-06T18:25:24.521Z,5.10
2018-12-06T18:27:59.611Z,5.27
2018-12-06T18:33:20.187Z,5.63
2018-12-06T18:35:54.484Z,6.00
2018-12-06T18:38:28.911Z,5.83
2018-12-06T18:41:11.607Z,5.30
2018-12-06T18:44:00.297Z,5.07
2018-12-06T18:46:44.114Z,5.03
2018-12-06T18:49:25.121Z,6.50
2018-12-06T18:51:58.400Z,6.00
2018-12-06T18:54:38.611Z,6.30
2018-12-06T18:57:13.053Z,5.50
2018-12-06T18:59:48.259Z,5.23
2018-12-06T19:02:28.180Z,6.30
2018-12-06T19:10:38.449Z,5.30
2018-12-06T19:13:13.867Z,6.17
2018-12-06T19:15:56.961Z,5.37
2018-12-06T19:18:31.336Z,5.47
2018-12-06T19:21:17.380Z,5.93
2018-12-06T19:26:56.666Z,5.27
2018-12-06T19:29:30.086Z,5.30
2018-12-06T19:32:09.686Z,5.90
2018-12-06T19:34:49.133Z,3.97
2018-12-06T19:40:10.129Z,4.00
2018-12-06T19:42:45.305Z,5.10
2018-12-06T19:45:18.682Z,5.27
2018-12-06T19:47:59.798Z,5.17
2018-12-06T19:50:39.903Z,6.83
2018-12-06T19:56:05.769Z,4.87
2018-12-06T19:58:41.536Z,4.77
2018-12-06T20:01:18.330Z,5.43
2018-12-06T20:03:56.518Z,5.97
2018-12-06T20:06:30.210Z,6.27
2018-12-06T20:11:42.564Z,5.30
2018-12-06T20:14:15.704Z,6.00
2018-12-06T20:16:50.744Z,5.03
2018-12-06T20:22:08.309Z,4.60
2018-12-06T20:24:42.215Z,4.90
2018-12-06T20:27:15.967Z,5.37
2018-12-06T20:29:50.575Z,5.80
2018-12-06T20:32:26.488Z,4.33
2018-12-06T20:35:04.907Z,4.70
2018-12-06T20:37:43.540Z,5.30
2018-12-06T20:40:18.723Z,5.50
2018-12-06T20:42:57.121Z,4.80
2018-12-06T20:45:37.683Z,4.40
2018-12-06T20:48:07.060Z,4.80
2018-12-06T20:50:49.204Z,4.80
2018-12-06T20:53:15.498Z,4.80
2018-12-06T20:55:52.849Z,5.23
2018-12-06T20:58:28.367Z,5.37
2018-12-06T21:01:09.680Z,4.33
2018-12-06T21:03:43.405Z,4.30
2018-12-06T21:06:27.122Z,4.90
2018-12-06T21:08:58.128Z,4.27
2018-12-06T21:11:32.339Z,3.63
2018-12-06T21:14:12.924Z,4.27
2018-12-06T21:16:46.770Z,3.90
2018-12-06T21:19:20.388Z,3.40
2018-12-06T21:21:59.109Z,3.27
2018-12-06T21:24:33.828Z,2.80
2018-12-06T21:27:03.152Z,2.40
2018-12-06T21:29:34.063Z,2.60
2018-12-06T21:32:07.285Z,2.70
2018-12-06T21:34:38.905Z,2.80
2018-12-06T21:37:22.827Z,2.70
2018-12-06T21:40:05.807Z,3.30
2018-12-06T21:50:48.515Z,3.30
2018-12-06T21:53:34.639Z,2.70
2018-12-06T21:56:07.084Z,2.47
2018-12-06T22:04:04.100Z,2.90
2018-12-06T22:09:27.924Z,2.20
2018-12-06T22:12:13.927Z,2.53
2018-12-06T22:14:46.388Z,3.00
2018-12-06T22:17:26.524Z,2.33
2018-12-06T22:20:01.592Z,2.97
2018-12-06T22:22:48.295Z,3.37
2018-12-06T22:25:24.508Z,2.97
2018-12-06T22:28:01.102Z,2.70
2018-12-06T22:30:38.104Z,2.70
2018-12-06T22:33:14.727Z,3.10
2018-12-06T22:36:04.816Z,2.80
2018-12-06T22:38:47.212Z,2.67
2018-12-06T22:47:04.724Z,3.03
2018-12-06T22:49:39.243Z,2.57
2018-12-06T22:52:17.157Z,2.20
2018-12-06T22:54:51.202Z,2.63
2018-12-06T22:57:18.928Z,2.60
2018-12-06T22:59:50.309Z,3.60
2018-12-06T23:02:22.320Z,2.40
2018-12-06T23:05:02.600Z,2.20
2018-12-06T23:07:33.560Z,2.30
2018-12-06T23:10:10.899Z,1.70
2018-12-06T23:12:46.863Z,1.97
2018-12-06T23:15:20.435Z,1.73
2018-12-06T23:17:53.873Z,1.60
2018-12-06T23:20:28.128Z,1.77
2018-12-06T23:23:01.757Z,1.40
2018-12-06T23:25:32.808Z,1.80
2018-12-06T23:28:06.889Z,1.30
2018-12-06T23:30:40.635Z,1.40
2018-12-06T23:33:16.529Z,1.93
2018-12-06T23:35:50.529Z,2.20
2018-12-06T23:38:25.265Z,2.17
2018-12-06T23:40:59.015Z,3.03
2018-12-06T23:43:38.866Z,2.13
2018-12-06T23:46:23.649Z,2.17
2018-12-06T23:48:58.905Z,1.40
2018-12-06T23:51:36.256Z,1.67
2018-12-06T23:54:16.420Z,2.10
2018-12-06T23:57:04.545Z,1.60
2018-12-06T23:59:44.798Z,1.60
